createdAt,value
2017-01-10T00:01:00.836Z,8
2017-01-10T00:02:11.262Z,8
2017-01-10T00:03:21.687Z,8
2017-01-10T00:04:32.119Z,8
2017-01-10T00:05:42.774Z,8
2017-01-10T00:06:53.198Z,8
2017-01-10T00:08:03.623Z,8
2017-01-10T00:09:14.049Z,8
2017-01-10T00:10:39.025Z,8
2017-01-10T00:11:49.450Z,8
2017-01-10T00:12:59.876Z,8
2017-01-10T00:14:10.303Z,8
2017-01-10T00:15:20.724Z,8
2017-01-10T00:16:31.453Z,8
2017-01-10T00:17:41.908Z,8
2017-01-10T00:18:52.332Z,12
2017-01-10T00:20:02.761Z,12
2017-01-10T00:21:13.201Z,8
2017-01-10T00:22:23.884Z,8
2017-01-10T00:23:34.315Z,8
2017-01-10T00:24:44.756Z,8
2017-01-10T00:25:55.193Z,8
2017-01-10T00:27:05.617Z,8
2017-01-10T00:28:30.596Z,8
2017-01-10T00:29:41.023Z,8
2017-01-10T00:31:05.999Z,8
2017-01-10T00:32:16.423Z,8
2017-01-10T00:33:26.847Z,8
2017-01-10T00:34:37.275Z,8
2017-01-10T00:35:47.702Z,8
2017-01-10T00:36:58.131Z,12
2017-01-10T00:38:08.553Z,8
2017-01-10T00:39:18.979Z,8
2017-01-10T00:40:29.401Z,8
2017-01-10T00:41:39.826Z,8
2017-01-10T00:42:50.256Z,8
2017-01-10T00:44:00.695Z,8
2017-01-10T00:45:11.461Z,8
2017-01-10T00:46:21.995Z,8
2017-01-10T00:47:32.484Z,8
2017-01-10T00:48:42.979Z,8
2017-01-10T00:49:53.438Z,8
2017-01-10T00:51:04.756Z,8
2017-01-10T00:52:15.169Z,8
2017-01-10T00:53:25.577Z,8
2017-01-10T00:54:35.988Z,8
2017-01-10T00:55:46.402Z,8
2017-01-10T00:56:56.815Z,8
2017-01-10T00:59:32.202Z,8
2017-01-10T01:00:42.614Z,8
2017-01-10T01:01:53.023Z,8
2017-01-10T01:03:03.432Z,12
2017-01-10T01:04:13.841Z,12
2017-01-10T01:05:24.252Z,8
2017-01-10T01:06:34.668Z,12
2017-01-10T01:07:59.827Z,8
2017-01-10T01:09:10.231Z,8
2017-01-10T01:10:20.675Z,8
2017-01-10T01:11:31.095Z,12
2017-01-10T01:12:41.702Z,12
2017-01-10T01:13:52.112Z,8
2017-01-10T01:15:02.526Z,8
2017-01-10T01:16:13.020Z,8
2017-01-10T01:17:23.554Z,8
2017-01-10T01:18:34.280Z,8
2017-01-10T01:19:44.810Z,8
2017-01-10T01:20:55.335Z,8
2017-01-10T01:22:05.892Z,8
2017-01-10T01:23:16.423Z,8
2017-01-10T01:24:27.153Z,8
2017-01-10T01:25:52.204Z,8
2017-01-10T01:27:02.730Z,8
2017-01-10T01:28:27.814Z,8
2017-01-10T01:29:53.167Z,8
2017-01-10T01:31:03.693Z,8
2017-01-10T01:32:14.246Z,8
2017-01-10T01:33:24.777Z,8
2017-01-10T01:34:35.611Z,4
2017-01-10T01:35:46.141Z,12
2017-01-10T01:36:56.668Z,8
2017-01-10T01:38:07.197Z,8
2017-01-10T01:39:17.754Z,12
2017-01-10T01:40:28.481Z,8
2017-01-10T01:41:39.011Z,8
2017-01-10T01:42:49.538Z,8
2017-01-10T01:44:00.067Z,8
2017-01-10T01:45:10.594Z,8
2017-01-10T01:46:21.122Z,8
2017-01-10T01:47:31.651Z,8
2017-01-10T01:48:42.177Z,8
2017-01-10T01:49:53.285Z,8
2017-01-10T01:51:03.815Z,8
2017-01-10T01:52:14.345Z,8
2017-01-10T01:53:24.878Z,8
2017-01-10T01:54:35.431Z,4
2017-01-10T01:55:45.964Z,12
2017-01-10T01:56:56.493Z,12
2017-01-10T01:58:07.326Z,8
2017-01-10T01:59:17.856Z,8
2017-01-10T02:00:28.384Z,8
2017-01-10T02:01:38.909Z,8
2017-01-10T02:02:49.440Z,8
2017-01-10T02:04:00.272Z,12
2017-01-10T02:05:10.833Z,8
2017-01-10T02:06:21.938Z,8
2017-01-10T02:07:33.044Z,8
2017-01-10T02:08:43.576Z,8
2017-01-10T02:09:54.106Z,4
2017-01-10T02:11:04.633Z,12
2017-01-10T02:12:15.160Z,8
2017-01-10T02:13:25.688Z,8
2017-01-10T02:14:36.222Z,8
2017-01-10T02:15:46.759Z,8
2017-01-10T02:16:57.312Z,8
2017-01-10T02:18:07.839Z,8
2017-01-10T02:19:18.367Z,8
2017-01-10T02:20:28.899Z,8
2017-01-10T02:21:39.727Z,8
2017-01-10T02:22:50.256Z,12
2017-01-10T02:24:00.789Z,8
2017-01-10T02:25:11.316Z,8
2017-01-10T02:26:21.839Z,8
2017-01-10T02:27:32.372Z,8
2017-01-10T02:28:42.906Z,8
2017-01-10T02:29:53.433Z,8
2017-01-10T02:31:03.961Z,8
2017-01-10T02:32:14.489Z,8
2017-01-10T02:33:39.742Z,12
2017-01-10T02:34:50.275Z,8
2017-01-10T02:36:00.818Z,8
2017-01-10T02:37:11.375Z,8
2017-01-10T02:38:21.900Z,12
2017-01-10T02:39:32.425Z,8
2017-01-10T02:40:42.877Z,8
2017-01-10T02:41:53.318Z,12
2017-01-10T02:43:03.754Z,8
2017-01-10T02:44:14.193Z,8
2017-01-10T02:45:24.831Z,8
2017-01-10T02:46:35.268Z,8
2017-01-10T02:47:45.705Z,8
2017-01-10T02:48:56.142Z,8
2017-01-10T02:50:06.579Z,8
2017-01-10T02:51:17.212Z,8
2017-01-10T02:52:27.652Z,8
2017-01-10T02:53:38.087Z,8
2017-01-10T02:54:48.526Z,12
2017-01-10T02:55:58.996Z,12
2017-01-10T02:57:09.434Z,8
2017-01-10T02:58:19.873Z,8
2017-01-10T02:59:30.308Z,8
2017-01-10T03:00:40.768Z,12
2017-01-10T03:01:51.206Z,12
2017-01-10T03:03:01.646Z,8
2017-01-10T03:04:12.114Z,8
2017-01-10T03:05:23.116Z,8
2017-01-10T03:06:33.554Z,12
2017-01-10T03:07:43.995Z,8
2017-01-10T03:08:54.430Z,12
2017-01-10T03:10:04.863Z,12
2017-01-10T03:11:15.298Z,8
2017-01-10T03:12:25.732Z,8
2017-01-10T03:13:36.187Z,8
2017-01-10T03:14:46.919Z,12
2017-01-10T03:15:57.355Z,12
2017-01-10T03:17:07.793Z,12
2017-01-10T03:18:18.232Z,8
2017-01-10T03:19:28.677Z,12
2017-01-10T03:20:53.687Z,12
2017-01-10T03:22:04.126Z,12
2017-01-10T03:23:14.568Z,12
2017-01-10T03:24:25.008Z,12
2017-01-10T03:25:35.744Z,8
2017-01-10T03:26:46.181Z,12
2017-01-10T03:27:56.619Z,8
2017-01-10T03:29:07.060Z,12
2017-01-10T03:30:17.501Z,8
2017-01-10T03:31:28.137Z,8
2017-01-10T03:32:38.578Z,8
2017-01-10T03:33:49.016Z,8
2017-01-10T03:34:59.368Z,8
2017-01-10T03:36:09.686Z,8
2017-01-10T03:37:20.025Z,8
2017-01-10T03:38:30.344Z,12
2017-01-10T03:39:55.229Z,8
2017-01-10T03:41:05.553Z,8
2017-01-10T03:42:15.870Z,8
2017-01-10T03:43:26.187Z,8
2017-01-10T03:44:36.504Z,8
2017-01-10T03:45:46.827Z,8
2017-01-10T03:46:57.146Z,8
2017-01-10T03:48:07.465Z,8
2017-01-10T03:49:17.783Z,8
2017-01-10T03:50:28.108Z,8
2017-01-10T03:51:38.423Z,8
2017-01-10T03:52:48.740Z,8
2017-01-10T03:54:13.932Z,8
2017-01-10T03:55:24.256Z,8
2017-01-10T03:56:34.570Z,8
2017-01-10T03:57:44.887Z,8
2017-01-10T03:58:55.506Z,8
2017-01-10T04:00:05.824Z,8
2017-01-10T04:01:16.150Z,8
2017-01-10T04:02:26.469Z,8
2017-01-10T04:03:36.782Z,8
2017-01-10T04:04:47.098Z,8
2017-01-10T04:05:57.418Z,8
2017-01-10T04:07:07.735Z,12
2017-01-10T04:08:18.050Z,8
2017-01-10T04:09:42.936Z,8
2017-01-10T04:10:53.323Z,8
2017-01-10T04:12:03.737Z,8
2017-01-10T04:13:14.147Z,8
2017-01-10T04:14:24.558Z,8
2017-01-10T04:15:34.966Z,8
2017-01-10T04:16:45.400Z,8
2017-01-10T04:17:55.816Z,8
2017-01-10T04:19:06.225Z,8
2017-01-10T04:20:16.634Z,8
2017-01-10T04:21:27.043Z,8
2017-01-10T04:22:37.453Z,8
2017-01-10T04:23:47.883Z,12
2017-01-10T04:24:58.285Z,8
2017-01-10T04:26:08.695Z,8
2017-01-10T04:27:19.409Z,8
2017-01-10T04:28:29.821Z,12
2017-01-10T04:29:40.229Z,8
2017-01-10T04:30:50.641Z,8
2017-01-10T04:32:01.055Z,8
2017-01-10T04:33:11.771Z,8
2017-01-10T04:34:22.187Z,12
2017-01-10T04:35:32.593Z,8
2017-01-10T04:36:42.999Z,8
2017-01-10T04:37:53.406Z,8
2017-01-10T04:39:04.123Z,8
2017-01-10T04:40:14.531Z,8
2017-01-10T04:41:24.936Z,12
2017-01-10T04:42:35.344Z,12
2017-01-10T04:43:45.755Z,8
2017-01-10T04:44:56.244Z,8
2017-01-10T04:46:06.772Z,8
2017-01-10T04:47:17.299Z,8
2017-01-10T04:48:27.832Z,8
2017-01-10T04:49:38.361Z,8
2017-01-10T04:50:49.192Z,8
2017-01-10T04:51:59.720Z,8
2017-01-10T04:53:10.250Z,8
2017-01-10T04:54:20.775Z,8
2017-01-10T04:55:31.229Z,12
2017-01-10T04:56:41.966Z,12
2017-01-10T04:57:52.403Z,8
2017-01-10T04:59:02.839Z,8
2017-01-10T05:00:13.282Z,12
2017-01-10T05:01:38.260Z,8
2017-01-10T05:02:48.728Z,12
2017-01-10T05:03:59.166Z,12
2017-01-10T05:05:09.603Z,8
2017-01-10T05:06:20.048Z,12
2017-01-10T05:07:30.688Z,12
2017-01-10T05:08:41.133Z,8
2017-01-10T05:09:51.592Z,8
2017-01-10T05:11:02.029Z,12
2017-01-10T05:12:12.483Z,8
2017-01-10T05:13:22.914Z,8
2017-01-10T05:14:33.354Z,12
2017-01-10T05:15:58.336Z,12
2017-01-10T05:17:08.772Z,8
2017-01-10T05:18:19.412Z,12
2017-01-10T05:19:29.856Z,8
2017-01-10T05:20:40.289Z,8
2017-01-10T05:21:50.727Z,8
2017-01-10T05:23:01.165Z,12
2017-01-10T05:24:11.599Z,8
2017-01-10T05:25:22.035Z,12
2017-01-10T05:26:32.472Z,8
2017-01-10T05:27:42.906Z,8
2017-01-10T05:28:53.341Z,8
2017-01-10T05:30:04.092Z,8
2017-01-10T05:31:14.527Z,8
2017-01-10T05:32:24.970Z,12
2017-01-10T05:33:35.409Z,8
2017-01-10T05:34:45.845Z,8
2017-01-10T05:35:56.282Z,8
2017-01-10T05:37:06.716Z,8
2017-01-10T05:38:17.158Z,8
2017-01-10T05:39:27.593Z,8
2017-01-10T05:40:38.029Z,12
2017-01-10T05:41:48.467Z,8
2017-01-10T05:42:58.898Z,8
2017-01-10T05:44:09.342Z,8
2017-01-10T05:45:19.779Z,12
2017-01-10T05:46:30.242Z,8
2017-01-10T05:47:40.980Z,8
2017-01-10T05:48:51.417Z,8
2017-01-10T05:50:01.851Z,8
2017-01-10T05:51:26.829Z,8
2017-01-10T05:52:37.261Z,12
2017-01-10T05:53:47.693Z,8
2017-01-10T05:54:58.127Z,8
2017-01-10T05:56:08.559Z,8
2017-01-10T05:57:18.997Z,12
2017-01-10T05:58:29.428Z,8
2017-01-10T05:59:39.864Z,8
2017-01-10T06:00:50.297Z,12
2017-01-10T06:02:15.277Z,12
2017-01-10T06:03:25.712Z,12
2017-01-10T06:04:36.715Z,12
2017-01-10T06:05:47.156Z,12
2017-01-10T06:06:57.593Z,12
2017-01-10T06:08:08.025Z,12
2017-01-10T06:09:18.660Z,12
2017-01-10T06:10:29.123Z,12
2017-01-10T06:11:39.571Z,12
2017-01-10T06:12:50.008Z,12
2017-01-10T06:15:25.427Z,12
2017-01-10T06:16:35.860Z,12
2017-01-10T06:18:00.840Z,12
2017-01-10T06:19:11.279Z,12
2017-01-10T06:20:21.711Z,8
2017-01-10T06:21:32.145Z,12
2017-01-10T06:22:42.580Z,12
2017-01-10T06:23:53.019Z,12
2017-01-10T06:25:03.488Z,12
2017-01-10T06:26:13.924Z,12
2017-01-10T06:27:24.360Z,12
2017-01-10T06:28:34.794Z,12
2017-01-10T06:29:45.149Z,12
2017-01-10T06:30:55.464Z,12
2017-01-10T06:32:05.984Z,12
2017-01-10T06:33:16.305Z,12
2017-01-10T06:34:26.624Z,12
2017-01-10T06:35:36.940Z,12
2017-01-10T06:36:47.260Z,12
2017-01-10T06:37:57.883Z,12
2017-01-10T06:39:08.226Z,12
2017-01-10T06:40:18.545Z,12
2017-01-10T06:41:28.863Z,12
2017-01-10T06:42:39.176Z,12
2017-01-10T06:43:49.795Z,12
2017-01-10T06:45:00.111Z,12
2017-01-10T06:46:10.429Z,12
2017-01-10T06:47:20.748Z,12
2017-01-10T06:48:31.624Z,12
2017-01-10T06:49:41.943Z,12
2017-01-10T06:50:52.255Z,12
2017-01-10T06:52:02.570Z,12
2017-01-10T06:53:12.887Z,12
2017-01-10T06:54:23.204Z,12
2017-01-10T06:55:33.519Z,12
2017-01-10T06:56:43.836Z,12
2017-01-10T06:57:54.151Z,12
2017-01-10T06:59:04.469Z,12
2017-01-10T07:00:14.786Z,12
2017-01-10T07:01:25.111Z,12
2017-01-10T07:02:35.434Z,12
2017-01-10T07:03:45.772Z,12
2017-01-10T07:04:56.171Z,12
2017-01-10T07:06:06.616Z,12
2017-01-10T07:07:17.053Z,12
2017-01-10T07:08:27.485Z,12
2017-01-10T07:09:37.941Z,12
2017-01-10T07:10:48.459Z,8
2017-01-10T07:11:58.990Z,12
2017-01-10T07:13:09.520Z,12
2017-01-10T07:14:20.046Z,12
2017-01-10T07:15:30.570Z,12
2017-01-10T07:16:41.095Z,12
2017-01-10T07:17:51.625Z,12
2017-01-10T07:19:02.157Z,12
2017-01-10T07:20:12.685Z,12
2017-01-10T07:21:23.213Z,12
2017-01-10T07:22:33.769Z,12
2017-01-10T07:23:44.302Z,12
2017-01-10T07:25:09.359Z,12
2017-01-10T07:26:19.886Z,12
2017-01-10T07:27:30.412Z,12
2017-01-10T07:28:55.464Z,12
2017-01-10T07:30:06.194Z,12
2017-01-10T07:31:16.722Z,12
2017-01-10T07:32:27.245Z,12
2017-01-10T07:33:37.778Z,12
2017-01-10T07:34:48.331Z,12
2017-01-10T07:35:59.062Z,12
2017-01-10T07:37:09.591Z,12
2017-01-10T07:38:20.116Z,12
2017-01-10T07:39:30.643Z,12
2017-01-10T07:40:41.169Z,12
2017-01-10T07:41:51.896Z,12
2017-01-10T07:43:02.422Z,12
2017-01-10T07:44:12.946Z,12
2017-01-10T07:45:23.479Z,12
2017-01-10T07:46:48.731Z,12
2017-01-10T07:49:24.314Z,12
2017-01-10T07:50:34.843Z,12
2017-01-10T07:51:45.369Z,12
2017-01-10T07:52:55.902Z,12
2017-01-10T07:54:06.435Z,12
2017-01-10T07:55:16.961Z,12
2017-01-10T07:56:27.402Z,12
2017-01-10T07:57:37.842Z,12
2017-01-10T07:58:48.299Z,12
2017-01-10T07:59:58.735Z,12
2017-01-10T08:01:09.168Z,12
2017-01-10T08:02:19.606Z,12
2017-01-10T08:03:30.041Z,12
2017-01-10T08:04:40.478Z,12
2017-01-10T08:05:50.913Z,12
2017-01-10T08:07:01.348Z,8
2017-01-10T08:08:11.785Z,12
2017-01-10T08:09:22.221Z,12
2017-01-10T08:10:32.656Z,12
2017-01-10T08:11:43.093Z,8
2017-01-10T08:12:53.496Z,12
2017-01-10T08:14:03.813Z,12
2017-01-10T08:15:14.330Z,12
2017-01-10T08:16:24.645Z,12
2017-01-10T08:17:34.962Z,12
2017-01-10T08:18:45.278Z,12
2017-01-10T08:19:55.600Z,16
2017-01-10T08:21:06.117Z,12
2017-01-10T08:22:16.442Z,12
2017-01-10T08:23:26.763Z,16
2017-01-10T08:24:37.081Z,20
2017-01-10T08:25:47.402Z,20
2017-01-10T08:26:57.718Z,20
2017-01-10T08:28:08.034Z,20
2017-01-10T08:29:18.352Z,12
2017-01-10T08:30:28.666Z,8
2017-01-10T08:31:38.982Z,12
2017-01-10T08:32:49.600Z,12
2017-01-10T08:33:59.915Z,12
2017-01-10T08:35:10.232Z,12
2017-01-10T08:36:20.576Z,16
2017-01-10T08:37:30.890Z,20
2017-01-10T08:38:41.507Z,20
2017-01-10T08:39:51.826Z,20
2017-01-10T08:41:02.147Z,24
2017-01-10T08:42:12.467Z,24
2017-01-10T08:43:37.653Z,28
2017-01-10T08:44:47.975Z,28
2017-01-10T08:45:58.297Z,28
2017-01-10T08:47:08.617Z,32
2017-01-10T08:48:18.939Z,36
2017-01-10T08:49:29.664Z,36
2017-01-10T08:50:40.134Z,40
2017-01-10T08:51:50.572Z,44
2017-01-10T08:53:01.006Z,44
2017-01-10T08:54:11.444Z,52
2017-01-10T08:55:21.885Z,52
2017-01-10T08:56:32.322Z,56
2017-01-10T08:59:07.737Z,64
2017-01-10T09:00:18.174Z,68
2017-01-10T09:01:28.613Z,72
2017-01-10T09:02:39.048Z,76
2017-01-10T09:03:49.489Z,80
2017-01-10T09:04:59.930Z,84
2017-01-10T09:06:10.568Z,84
2017-01-10T09:07:21.012Z,88
2017-01-10T09:08:31.458Z,96
2017-01-10T09:09:41.894Z,104
2017-01-10T09:10:52.333Z,108
2017-01-10T09:12:03.070Z,108
2017-01-10T09:13:13.507Z,120
2017-01-10T09:14:23.945Z,124
2017-01-10T09:15:34.380Z,128
2017-01-10T09:16:44.813Z,124
2017-01-10T09:17:55.250Z,124
2017-01-10T09:19:05.687Z,140
2017-01-10T09:20:16.124Z,140
2017-01-10T09:21:26.557Z,152
2017-01-10T09:22:36.992Z,156
2017-01-10T09:23:47.343Z,160
2017-01-10T09:24:57.659Z,172
2017-01-10T09:26:07.979Z,184
2017-01-10T09:27:18.295Z,184
2017-01-10T09:29:53.701Z,196
2017-01-10T09:31:04.020Z,200
2017-01-10T09:32:14.343Z,204
2017-01-10T09:33:24.661Z,216
2017-01-10T09:34:34.978Z,220
2017-01-10T09:35:45.298Z,228
2017-01-10T09:36:55.619Z,236
2017-01-10T09:38:05.949Z,244
2017-01-10T09:39:16.268Z,256
2017-01-10T09:40:26.585Z,260
2017-01-10T09:41:36.902Z,264
2017-01-10T09:43:01.793Z,272
2017-01-10T09:44:12.680Z,280
2017-01-10T09:45:23.207Z,288
2017-01-10T09:46:48.094Z,288
2017-01-10T09:47:58.412Z,304
2017-01-10T09:49:08.748Z,316
2017-01-10T09:50:19.065Z,304
2017-01-10T09:51:29.380Z,320
2017-01-10T09:52:39.694Z,348
2017-01-10T09:53:50.012Z,344
2017-01-10T09:55:00.358Z,356
2017-01-10T09:56:10.972Z,356
2017-01-10T09:57:21.290Z,372
2017-01-10T09:58:31.607Z,384
2017-01-10T09:59:41.925Z,396
2017-01-10T10:00:52.244Z,400
2017-01-10T10:02:02.561Z,404
2017-01-10T10:03:12.879Z,428
2017-01-10T10:04:23.195Z,440
2017-01-10T10:05:33.517Z,456
2017-01-10T10:06:43.834Z,464
2017-01-10T10:08:08.718Z,484
2017-01-10T10:09:19.042Z,504
2017-01-10T10:10:29.359Z,500
2017-01-10T10:11:54.289Z,516
2017-01-10T10:13:04.908Z,516
2017-01-10T10:14:15.227Z,528
2017-01-10T10:15:25.554Z,532
2017-01-10T10:16:35.869Z,540
2017-01-10T10:17:46.186Z,560
2017-01-10T10:18:56.504Z,564
2017-01-10T10:20:06.825Z,580
2017-01-10T10:21:17.143Z,600
2017-01-10T10:22:27.457Z,612
2017-01-10T10:23:37.777Z,616
2017-01-10T10:24:48.397Z,640
2017-01-10T10:26:13.283Z,648
2017-01-10T10:27:23.597Z,664
2017-01-10T10:28:33.917Z,684
2017-01-10T10:29:44.539Z,700
2017-01-10T10:30:54.854Z,728
2017-01-10T10:32:05.190Z,740
2017-01-10T10:33:15.511Z,756
2017-01-10T10:34:25.911Z,784
2017-01-10T10:35:36.651Z,788
2017-01-10T10:36:47.088Z,800
2017-01-10T10:37:57.526Z,808
2017-01-10T10:39:07.962Z,816
2017-01-10T10:40:18.400Z,824
2017-01-10T10:41:28.836Z,832
2017-01-10T10:42:39.272Z,840
2017-01-10T10:43:49.706Z,852
2017-01-10T10:45:00.718Z,860
2017-01-10T10:46:11.173Z,864
2017-01-10T10:47:21.910Z,868
2017-01-10T10:48:32.349Z,892
2017-01-10T10:49:42.784Z,892
2017-01-10T10:50:53.220Z,916
2017-01-10T10:52:18.200Z,908
2017-01-10T10:53:28.645Z,920
2017-01-10T10:54:53.626Z,944
2017-01-10T10:56:04.135Z,996
2017-01-10T10:57:14.664Z,956
2017-01-10T10:58:25.495Z,980
2017-01-10T10:59:36.029Z,996
2017-01-10T11:00:46.564Z,908
2017-01-10T11:03:22.347Z,1020
2017-01-10T11:04:32.872Z,1072
2017-01-10T11:05:43.399Z,972
2017-01-10T11:07:08.458Z,1048
2017-01-10T11:08:19.437Z,1032
2017-01-10T11:09:29.968Z,1020
2017-01-10T11:10:40.500Z,1020
2017-01-10T11:11:51.028Z,1024
2017-01-10T11:13:01.563Z,1004
2017-01-10T11:14:12.099Z,1000
2017-01-10T11:15:22.623Z,1084
2017-01-10T11:18:12.735Z,1096
2017-01-10T11:19:23.267Z,1120
2017-01-10T11:20:33.800Z,1080
2017-01-10T11:21:44.328Z,1100
2017-01-10T11:22:54.894Z,1104
2017-01-10T11:24:05.421Z,1052
2017-01-10T11:25:15.951Z,1092
2017-01-10T11:26:26.476Z,1128
2017-01-10T11:27:37.006Z,1152
2017-01-10T11:28:47.535Z,1076
2017-01-10T11:29:58.071Z,1104
2017-01-10T11:31:08.803Z,1036
2017-01-10T11:32:19.333Z,1172
2017-01-10T11:33:29.863Z,1164
2017-01-10T11:34:40.388Z,1132
2017-01-10T11:36:05.744Z,1220
2017-01-10T11:37:16.280Z,1364
2017-01-10T11:38:26.808Z,1092
2017-01-10T11:39:37.341Z,1036
2017-01-10T11:40:47.830Z,1152
2017-01-10T11:41:58.265Z,948
2017-01-10T11:43:08.706Z,1012
2017-01-10T11:44:19.165Z,1096
2017-01-10T11:45:44.144Z,948
2017-01-10T11:46:54.580Z,1164
2017-01-10T11:48:19.565Z,1732
2017-01-10T11:49:30.000Z,1668
2017-01-10T11:52:05.807Z,1668
2017-01-10T11:53:16.247Z,1444
2017-01-10T11:54:26.688Z,2040
2017-01-10T11:55:37.120Z,1364
2017-01-10T11:57:02.368Z,1660
2017-01-10T11:58:12.817Z,1900
2017-01-10T11:59:23.252Z,2072
2017-01-10T12:00:33.689Z,1908
2017-01-10T12:01:58.672Z,1996
2017-01-10T12:03:09.111Z,1136
2017-01-10T12:04:20.130Z,1484
2017-01-10T12:05:30.563Z,1184
2017-01-10T12:06:41.579Z,1504
2017-01-10T12:07:52.016Z,1176
2017-01-10T12:09:02.450Z,1732
2017-01-10T12:10:27.433Z,1864
2017-01-10T12:11:37.868Z,632
2017-01-10T12:12:48.312Z,1916
2017-01-10T12:13:58.748Z,1176
2017-01-10T12:15:09.184Z,2152
2017-01-10T12:16:19.619Z,1000
2017-01-10T12:17:30.053Z,2232
2017-01-10T12:18:40.492Z,2552
2017-01-10T12:19:50.931Z,1280
2017-01-10T12:21:01.367Z,2384
2017-01-10T12:22:11.806Z,2384
2017-01-10T12:23:22.250Z,2400
2017-01-10T12:24:32.684Z,2304
2017-01-10T12:25:43.320Z,2180
2017-01-10T12:26:53.757Z,2268
2017-01-10T12:28:04.202Z,2268
2017-01-10T12:29:14.639Z,2276
2017-01-10T12:30:25.107Z,2280
2017-01-10T12:31:37.119Z,1956
2017-01-10T12:33:02.070Z,1244
2017-01-10T12:34:12.491Z,1480
2017-01-10T12:35:22.926Z,1888
2017-01-10T12:36:33.613Z,1864
2017-01-10T12:37:44.051Z,2260
2017-01-10T12:38:54.490Z,2348
2017-01-10T12:40:04.927Z,2580
2017-01-10T12:41:15.371Z,2572
2017-01-10T12:42:25.810Z,2492
2017-01-10T12:43:36.247Z,2388
2017-01-10T12:44:46.686Z,2748
2017-01-10T12:45:57.120Z,2684
2017-01-10T12:47:07.560Z,2768
2017-01-10T12:48:18.891Z,1720
2017-01-10T12:49:29.329Z,2848
2017-01-10T12:50:39.767Z,3052
2017-01-10T12:51:50.210Z,3104
2017-01-10T12:53:00.653Z,3148
2017-01-10T12:54:11.298Z,3080
2017-01-10T12:55:21.734Z,1928
2017-01-10T12:56:32.171Z,3272
2017-01-10T12:57:42.619Z,3556
2017-01-10T12:58:53.059Z,1932
2017-01-10T13:00:03.499Z,2668
2017-01-10T13:01:13.944Z,2472
2017-01-10T13:02:24.382Z,3492
2017-01-10T13:03:34.824Z,1928
2017-01-10T13:04:45.265Z,3708
2017-01-10T13:05:56.004Z,1620
2017-01-10T13:07:06.442Z,1620
2017-01-10T13:08:16.884Z,2688
2017-01-10T13:09:27.323Z,1764
2017-01-10T13:10:37.760Z,1752
2017-01-10T13:11:48.399Z,2208
2017-01-10T13:12:58.840Z,2036
2017-01-10T13:14:09.288Z,1940
2017-01-10T13:15:19.729Z,1728
2017-01-10T13:16:30.173Z,1924
2017-01-10T13:17:40.610Z,2020
2017-01-10T13:18:51.047Z,1932
2017-01-10T13:20:01.486Z,2004
2017-01-10T13:21:11.933Z,1984
2017-01-10T13:22:22.373Z,1984
2017-01-10T13:23:33.009Z,2072
2017-01-10T13:24:43.448Z,2048
2017-01-10T13:25:53.891Z,2644
2017-01-10T13:27:04.334Z,2232
2017-01-10T13:28:14.770Z,2128
2017-01-10T13:29:25.212Z,2144
2017-01-10T13:30:35.658Z,2248
2017-01-10T13:31:46.096Z,2364
2017-01-10T13:32:56.537Z,2140
2017-01-10T13:34:06.975Z,1780
2017-01-10T13:35:17.411Z,2088
2017-01-10T13:36:27.849Z,2292
2017-01-10T13:37:38.292Z,2372
2017-01-10T13:38:48.727Z,2604
2017-01-10T13:39:59.164Z,3300
2017-01-10T13:41:09.815Z,2328
2017-01-10T13:42:20.261Z,2308
2017-01-10T13:43:30.702Z,2120
2017-01-10T13:44:41.139Z,2088
2017-01-10T13:47:16.794Z,2980
2017-01-10T13:48:27.235Z,2900
2017-01-10T13:49:52.218Z,2708
2017-01-10T13:51:02.657Z,2708
2017-01-10T13:52:13.297Z,2976
2017-01-10T13:53:23.734Z,2232
2017-01-10T13:54:34.177Z,2592
2017-01-10T13:55:44.617Z,2428
2017-01-10T13:56:55.070Z,2596
2017-01-10T13:58:05.719Z,3080
2017-01-10T13:59:16.163Z,2744
2017-01-10T14:00:26.609Z,3812
2017-01-10T14:01:37.629Z,4080
2017-01-10T14:02:48.069Z,3108
2017-01-10T14:03:58.513Z,3200
2017-01-10T14:05:08.966Z,2572
2017-01-10T14:06:19.405Z,2412
2017-01-10T14:07:29.844Z,2244
2017-01-10T14:08:40.281Z,2584
2017-01-10T14:09:50.723Z,2280
2017-01-10T14:11:01.167Z,2700
2017-01-10T14:12:26.152Z,2448
2017-01-10T14:13:36.594Z,2344
2017-01-10T14:14:47.030Z,1920
2017-01-10T14:15:57.473Z,1800
2017-01-10T14:17:07.913Z,1880
2017-01-10T14:18:18.356Z,1868
2017-01-10T14:19:28.799Z,1920
2017-01-10T14:20:39.539Z,2348
2017-01-10T14:22:04.530Z,3004
2017-01-10T14:23:14.971Z,3292
2017-01-10T14:24:25.407Z,3320
2017-01-10T14:25:36.148Z,3616
2017-01-10T14:26:46.589Z,3144
2017-01-10T14:27:57.026Z,2448
2017-01-10T14:29:07.466Z,2248
2017-01-10T14:30:17.907Z,2284
2017-01-10T14:31:28.346Z,2392
2017-01-10T14:32:38.783Z,2464
2017-01-10T14:33:49.223Z,2504
2017-01-10T14:34:59.663Z,2288
2017-01-10T14:36:10.104Z,2388
2017-01-10T14:37:20.847Z,2220
2017-01-10T14:38:45.835Z,2312
2017-01-10T14:39:56.277Z,2176
2017-01-10T14:41:06.724Z,2468
2017-01-10T14:42:17.465Z,2960
2017-01-10T14:43:27.909Z,2484
2017-01-10T14:44:38.368Z,3008
2017-01-10T14:45:48.809Z,3156
2017-01-10T14:46:59.249Z,3276
2017-01-10T14:48:09.692Z,2936
2017-01-10T14:49:34.682Z,3028
2017-01-10T14:50:59.671Z,3116
2017-01-10T14:52:10.681Z,4032
2017-01-10T14:53:21.428Z,3816
2017-01-10T14:54:31.868Z,2720
2017-01-10T14:55:42.310Z,2176
2017-01-10T14:56:52.751Z,2188
2017-01-10T14:58:03.192Z,2168
2017-01-10T15:00:38.628Z,2624
2017-01-10T15:01:49.077Z,2468
2017-01-10T15:02:59.524Z,2384
2017-01-10T15:04:09.965Z,2152
2017-01-10T15:05:20.409Z,2196
2017-01-10T15:06:30.849Z,2400
2017-01-10T15:07:41.289Z,2404
2017-01-10T15:08:51.740Z,2308
2017-01-10T15:10:02.184Z,2724
2017-01-10T15:11:12.626Z,2672
2017-01-10T15:12:23.066Z,2504
2017-01-10T15:13:33.422Z,2496
2017-01-10T15:14:43.744Z,2660
2017-01-10T15:16:08.844Z,3296
2017-01-10T15:17:19.163Z,3072
2017-01-10T15:18:29.487Z,3512
2017-01-10T15:19:39.811Z,3228
2017-01-10T15:21:04.906Z,2096
2017-01-10T15:22:15.237Z,1916
2017-01-10T15:23:25.569Z,1828
2017-01-10T15:24:35.898Z,1752
2017-01-10T15:25:46.221Z,1780
2017-01-10T15:26:56.849Z,3056
2017-01-10T15:28:07.170Z,3188
2017-01-10T15:29:17.490Z,3128
2017-01-10T15:30:27.812Z,3380
2017-01-10T15:31:38.172Z,3456
2017-01-10T15:32:48.800Z,3200
2017-01-10T15:33:59.126Z,2836
2017-01-10T15:35:09.456Z,3300
2017-01-10T15:36:19.780Z,3004
2017-01-10T15:37:30.135Z,2676
2017-01-10T15:38:40.458Z,2736
2017-01-10T15:39:50.781Z,2516
2017-01-10T15:41:01.104Z,2936
2017-01-10T15:42:11.431Z,2792
2017-01-10T15:43:21.766Z,2624
2017-01-10T15:44:47.220Z,2736
2017-01-10T15:45:57.543Z,2224
2017-01-10T15:47:07.869Z,1608
2017-01-10T15:48:18.276Z,1780
2017-01-10T15:50:53.706Z,1804
2017-01-10T15:52:04.152Z,2368
2017-01-10T15:53:14.602Z,2284
2017-01-10T15:54:25.042Z,1884
2017-01-10T15:55:35.481Z,2024
2017-01-10T15:56:45.946Z,2540
2017-01-10T15:57:56.397Z,2632
2017-01-10T15:59:06.842Z,2288
2017-01-10T16:00:17.585Z,2488
2017-01-10T16:01:28.026Z,1836
2017-01-10T16:02:53.015Z,1816
2017-01-10T16:05:43.225Z,1700
2017-01-10T16:06:53.664Z,1716
2017-01-10T16:08:04.119Z,2676
2017-01-10T16:09:43.658Z,2652
2017-01-10T16:10:54.480Z,1860
2017-01-10T16:12:05.016Z,1692
2017-01-10T16:13:15.550Z,1976
2017-01-10T16:14:26.081Z,2552
2017-01-10T16:15:36.618Z,1868
2017-01-10T16:16:48.158Z,1752
2017-01-10T16:17:58.697Z,2128
2017-01-10T16:19:09.234Z,2504
2017-01-10T16:20:19.769Z,2232
2017-01-10T16:21:30.302Z,2492
2017-01-10T16:22:40.837Z,2316
2017-01-10T16:23:51.374Z,2144
2017-01-10T16:25:01.910Z,2256
2017-01-10T16:26:12.447Z,2268
2017-01-10T16:27:22.979Z,1600
2017-01-10T16:28:33.513Z,1680
2017-01-10T16:29:44.049Z,1996
2017-01-10T16:30:54.586Z,1784
2017-01-10T16:32:05.120Z,1900
2017-01-10T16:33:16.234Z,1696
2017-01-10T16:34:27.069Z,1924
2017-01-10T16:35:37.611Z,1892
2017-01-10T16:36:48.186Z,1964
2017-01-10T16:37:58.719Z,1888
2017-01-10T16:39:09.253Z,1856
2017-01-10T16:40:20.089Z,1832
2017-01-10T16:41:30.622Z,1816
2017-01-10T16:42:41.154Z,1736
2017-01-10T16:43:51.689Z,1736
2017-01-10T16:45:02.226Z,1500
2017-01-10T16:46:12.959Z,1528
2017-01-10T16:47:23.497Z,1624
2017-01-10T16:48:34.031Z,1568
2017-01-10T16:49:44.566Z,1572
2017-01-10T16:50:55.102Z,1556
2017-01-10T16:52:05.639Z,1588
2017-01-10T16:53:16.174Z,1572
2017-01-10T16:54:26.706Z,1476
2017-01-10T16:55:37.166Z,1404
2017-01-10T16:56:47.645Z,1344